sensor_id;sensor_type;location;lat;lon;timestamp;pressure;altitude;pressure_sealevel;temperature;humidity
66664;BME280;59683;51.428;-1.994;2023-05-23T09:25:45;101832.47;;;21.14;59.50
66664;BME280;59683;51.428;-1.994;2023-05-23T09:28:11;101841.00;;;21.44;57.29
66664;BME280;59683;51.428;-1.994;2023-05-23T09:30:37;101840.13;;;21.86;53.89
66664;BME280;59683;51.428;-1.994;2023-05-23T09:33:03;101829.81;;;21.81;52.09
66664;BME280;59683;51.428;-1.994;2023-05-23T09:35:29;101839.34;;;21.51;51.54
66664;BME280;59683;51.428;-1.994;2023-05-23T09:37:56;101830.13;;;21.62;52.63
66664;BME280;59683;51.428;-1.994;2023-05-23T09:40:30;101828.88;;;22.15;50.68
66664;BME280;59683;51.428;-1.994;2023-05-23T09:43:02;101833.72;;;21.95;47.92
66664;BME280;59683;51.428;-1.994;2023-05-23T09:45:29;101852.72;;;21.77;49.83
66664;BME280;59683;51.428;-1.994;2023-05-23T09:47:55;101855.34;;;21.44;49.67
66664;BME280;59683;51.428;-1.994;2023-05-23T09:50:21;101858.16;;;21.34;51.77
66664;BME280;59683;51.428;-1.994;2023-05-23T09:52:47;101856.53;;;21.16;51.98
66664;BME280;59683;51.428;-1.994;2023-05-23T11:20:57;101868.38;;;21.73;53.88
66664;BME280;59683;51.428;-1.994;2023-05-23T11:23:38;101862.72;;;22.01;50.95
66664;BME280;59683;51.428;-1.994;2023-05-23T11:26:30;101868.81;;;22.44;48.54
66664;BME280;59683;51.428;-1.994;2023-05-23T11:28:57;101869.81;;;22.75;46.88
66664;BME280;59683;51.428;-1.994;2023-05-23T12:15:35;101868.66;;;22.53;49.62
66664;BME280;59683;51.428;-1.994;2023-05-23T12:18:03;101870.78;;;22.74;47.73
66664;BME280;59683;51.428;-1.994;2023-05-23T12:20:29;101877.69;;;23.01;47.77
66664;BME280;59683;51.428;-1.994;2023-05-23T12:23:03;101871.22;;;23.19;45.01
66664;BME280;59683;51.428;-1.994;2023-05-23T12:25:28;101875.84;;;22.86;48.74
66664;BME280;59683;51.428;-1.994;2023-05-23T12:27:55;101878.28;;;23.20;43.33
66664;BME280;59683;51.428;-1.994;2023-05-23T12:30:20;101876.25;;;23.30;45.22
66664;BME280;59683;51.428;-1.994;2023-05-23T12:32:46;101879.88;;;23.45;44.08
66664;BME280;59683;51.428;-1.994;2023-05-23T12:35:13;101862.25;;;24.35;38.84
66664;BME280;59683;51.428;-1.994;2023-05-23T12:40:14;101859.41;;;25.18;38.35
66664;BME280;59683;51.428;-1.994;2023-05-23T12:42:58;101846.31;;;25.22;39.21
66664;BME280;59683;51.428;-1.994;2023-05-23T12:45:34;101848.03;;;25.96;36.90
66664;BME280;59683;51.428;-1.994;2023-05-23T12:48:04;101839.72;;;25.46;37.60
66664;BME280;59683;51.428;-1.994;2023-05-23T12:50:31;101844.19;;;25.54;37.56
66664;BME280;59683;51.428;-1.994;2023-05-23T12:52:57;101842.25;;;25.84;36.91
66664;BME280;59683;51.428;-1.994;2023-05-23T12:55:22;101842.69;;;25.87;36.08
66664;BME280;59683;51.428;-1.994;2023-05-23T12:57:48;101838.59;;;25.91;35.31
66664;BME280;59683;51.428;-1.994;2023-05-23T13:00:13;101831.31;;;25.77;34.03
66664;BME280;59683;51.428;-1.994;2023-05-23T13:02:39;101834.78;;;26.35;32.32
66664;BME280;59683;51.428;-1.994;2023-05-23T13:05:05;101829.53;;;25.48;35.34
66664;BME280;59683;51.428;-1.994;2023-05-23T13:07:31;101825.81;;;26.07;35.64
66664;BME280;59683;51.428;-1.994;2023-05-23T13:09:56;101839.84;;;25.74;35.98
66664;BME280;59683;51.428;-1.994;2023-05-23T13:12:22;101834.53;;;25.81;35.12
66664;BME280;59683;51.428;-1.994;2023-05-23T13:14:48;101834.03;;;25.41;36.61
66664;BME280;59683;51.428;-1.994;2023-05-23T13:17:14;101838.84;;;25.60;36.63
66664;BME280;59683;51.428;-1.994;2023-05-23T13:19:39;101830.88;;;24.93;36.14
66664;BME280;59683;51.428;-1.994;2023-05-23T13:22:05;101839.00;;;24.78;36.61
66664;BME280;59683;51.428;-1.994;2023-05-23T13:24:37;101843.75;;;25.50;35.07
66664;BME280;59683;51.428;-1.994;2023-05-23T13:27:03;101840.50;;;24.81;36.70
66664;BME280;59683;51.428;-1.994;2023-05-23T13:29:29;101850.00;;;24.62;35.80
66664;BME280;59683;51.428;-1.994;2023-05-23T13:31:55;101835.19;;;24.87;36.04
66664;BME280;59683;51.428;-1.994;2023-05-23T13:34:20;101835.75;;;24.83;37.58
66664;BME280;59683;51.428;-1.994;2023-05-23T13:36:46;101842.94;;;24.90;36.44
66664;BME280;59683;51.428;-1.994;2023-05-23T13:39:11;101840.25;;;25.05;37.34
66664;BME280;59683;51.428;-1.994;2023-05-23T13:41:37;101839.47;;;25.26;36.57
66664;BME280;59683;51.428;-1.994;2023-05-23T13:44:02;101839.59;;;25.18;36.27
66664;BME280;59683;51.428;-1.994;2023-05-23T13:46:28;101831.91;;;25.07;35.95
66664;BME280;59683;51.428;-1.994;2023-05-23T13:48:53;101837.59;;;24.82;37.36
66664;BME280;59683;51.428;-1.994;2023-05-23T13:51:18;101844.16;;;24.35;37.60
66664;BME280;59683;51.428;-1.994;2023-05-23T13:53:44;101837.13;;;24.03;39.78
66664;BME280;59683;51.428;-1.994;2023-05-23T14:02:54;101835.66;;;24.76;37.28
66664;BME280;59683;51.428;-1.994;2023-05-23T14:05:19;101833.41;;;24.80;36.31
66664;BME280;59683;51.428;-1.994;2023-05-23T14:07:45;101832.00;;;24.99;37.94
66664;BME280;59683;51.428;-1.994;2023-05-23T14:10:11;101837.38;;;25.58;34.11
66664;BME280;59683;51.428;-1.994;2023-05-23T14:12:38;101838.38;;;26.14;34.58
66664;BME280;59683;51.428;-1.994;2023-05-23T14:15:03;101830.47;;;26.41;33.64
66664;BME280;59683;51.428;-1.994;2023-05-23T14:17:29;101833.16;;;25.91;35.01
66664;BME280;59683;51.428;-1.994;2023-05-23T14:19:54;101828.91;;;26.32;34.69
66664;BME280;59683;51.428;-1.994;2023-05-23T14:22:20;101824.97;;;26.56;33.52
66664;BME280;59683;51.428;-1.994;2023-05-23T14:24:45;101824.78;;;26.99;35.25
66664;BME280;59683;51.428;-1.994;2023-05-23T14:27:10;101828.38;;;26.43;35.67
66664;BME280;59683;51.428;-1.994;2023-05-23T14:29:36;101835.72;;;26.71;35.72
66664;BME280;59683;51.428;-1.994;2023-05-23T14:32:01;101816.81;;;25.85;35.28
66664;BME280;59683;51.428;-1.994;2023-05-23T14:47:38;101799.25;;;22.95;42.66
66664;BME280;59683;51.428;-1.994;2023-05-23T15:31:04;101811.88;;;23.65;44.80
66664;BME280;59683;51.428;-1.994;2023-05-23T15:33:29;101793.41;;;23.45;45.11
66664;BME280;59683;51.428;-1.994;2023-05-23T15:35:54;101801.84;;;23.19;45.39
66664;BME280;59683;51.428;-1.994;2023-05-23T15:38:22;101795.44;;;23.12;45.52
66664;BME280;59683;51.428;-1.994;2023-05-23T15:40:48;101796.38;;;22.96;47.39
66664;BME280;59683;51.428;-1.994;2023-05-23T16:02:07;101793.09;;;25.72;40.47
66664;BME280;59683;51.428;-1.994;2023-05-23T16:04:34;101787.03;;;25.70;40.10
66664;BME280;59683;51.428;-1.994;2023-05-23T16:07:01;101793.53;;;25.76;40.34
66664;BME280;59683;51.428;-1.994;2023-05-23T16:09:26;101793.41;;;26.27;38.10
